createdAt,value
2023-02-11T00:00:10.903Z,101882.75
2023-02-11T00:02:37.480Z,101886.25
2023-02-11T00:05:04.478Z,101894.94
2023-02-11T00:07:32.312Z,101892.31
2023-02-11T00:09:58.993Z,101885.34
2023-02-11T00:12:25.910Z,101890.56
2023-02-11T00:14:52.559Z,101894.06
2023-02-11T00:17:19.026Z,101889.72
2023-02-11T00:19:49.568Z,101905.38
2023-02-11T00:22:16.294Z,101905.38
2023-02-11T00:24:42.857Z,101905.41
2023-02-11T00:27:09.384Z,101898.44
2023-02-11T00:29:37.058Z,101906.25
2023-02-11T00:32:05.288Z,101914.09
2023-02-11T00:34:32.566Z,101905.38
2023-02-11T00:37:01.870Z,101910.59
2023-02-11T00:39:28.495Z,101905.41
2023-02-11T00:41:55.702Z,101894.06
2023-02-11T00:44:22.188Z,101894.09
2023-02-11T00:46:48.688Z,101898.44
2023-02-11T00:49:15.506Z,101892.38
2023-02-11T00:51:42.013Z,101897.59
2023-02-11T00:54:08.652Z,101909.78
2023-02-11T00:56:35.582Z,101908.03
2023-02-11T00:59:02.050Z,101906.28
2023-02-11T01:01:28.564Z,101898.44
2023-02-11T01:03:54.982Z,101892.31
2023-02-11T01:06:22.965Z,101878.34
2023-02-11T01:08:49.553Z,101884.41
2023-02-11T01:11:19.233Z,101876.53
2023-02-11T01:13:46.653Z,101872.13
2023-02-11T01:16:13.371Z,101874.72
2023-02-11T01:18:41.849Z,101878.19
2023-02-11T01:21:09.999Z,101872.91
2023-02-11T01:23:36.479Z,101884.19
2023-02-11T01:26:04.385Z,101870.22
2023-02-11T01:28:31.140Z,101871.97
2023-02-11T01:31:01.009Z,101856.25
2023-02-11T01:33:27.562Z,101857.13
2023-02-11T01:35:54.021Z,101866.63
2023-02-11T01:38:25.207Z,101860.50
2023-02-11T01:40:59.826Z,101850.91
2023-02-11T01:43:27.998Z,101862.25
2023-02-11T01:45:59.510Z,101857.91
2023-02-11T01:48:39.157Z,101869.22
2023-02-11T01:51:25.732Z,101856.97
2023-02-11T01:54:11.335Z,101847.34
2023-02-11T01:57:02.573Z,101836.88
2023-02-11T01:59:33.388Z,101829.91
2023-02-11T02:02:03.561Z,101828.13
2023-02-11T02:04:33.513Z,101822.06
2023-02-11T02:07:04.128Z,101825.59
2023-02-11T02:09:35.096Z,101812.53
2023-02-11T02:12:03.965Z,101823.88
2023-02-11T02:14:30.502Z,101824.75
2023-02-11T02:16:56.985Z,101794.25
2023-02-11T02:19:41.776Z,101812.53
2023-02-11T02:22:17.244Z,101808.22
2023-02-11T02:25:02.448Z,101809.13
2023-02-11T02:27:56.062Z,101796.94
2023-02-11T02:30:41.229Z,101801.28
2023-02-11T02:33:26.421Z,101806.59
2023-02-11T02:36:05.989Z,101787.44
2023-02-11T02:38:55.803Z,101786.63
2023-02-11T02:41:27.095Z,101777.09
2023-02-11T02:43:53.992Z,101786.66
2023-02-11T02:46:25.817Z,101771.00
2023-02-11T02:48:53.574Z,101779.72
2023-02-11T02:51:33.840Z,101793.66
2023-02-11T02:54:22.112Z,101777.94
2023-02-11T02:56:59.203Z,101784.88
2023-02-11T02:59:51.330Z,101774.41
2023-02-11T03:02:23.725Z,101785.75
2023-02-11T03:05:12.081Z,101788.28
2023-02-11T03:07:46.205Z,101791.78
2023-02-11T03:10:22.499Z,101796.16
2023-02-11T03:12:49.595Z,101809.19
2023-02-11T03:15:17.643Z,101801.34
2023-02-11T03:17:47.735Z,101801.34
2023-02-11T03:20:17.366Z,101807.41
2023-02-11T03:22:51.112Z,101801.28
2023-02-11T03:25:17.902Z,101797.78
2023-02-11T03:27:53.085Z,101793.47
2023-02-11T03:30:28.730Z,101797.75
2023-02-11T03:33:25.517Z,101789.91
2023-02-11T03:36:05.088Z,101793.34
2023-02-11T03:38:48.766Z,101788.19
2023-02-11T03:41:17.907Z,101784.72
2023-02-11T03:43:47.535Z,101774.25
2023-02-11T03:46:16.519Z,101764.69
2023-02-11T03:48:48.239Z,101778.63
2023-02-11T03:51:15.053Z,101781.34
2023-02-11T03:53:43.292Z,101767.34
2023-02-11T03:56:13.281Z,101770.81
2023-02-11T03:58:39.737Z,101765.63
2023-02-11T04:01:08.793Z,101763.91
2023-02-11T04:03:35.534Z,101761.34
2023-02-11T04:06:02.291Z,101762.22
2023-02-11T04:08:28.800Z,101750.09
2023-02-11T04:10:55.247Z,101735.31
2023-02-11T04:13:22.108Z,101718.75
2023-02-11T04:15:49.096Z,101717.94
2023-02-11T04:18:15.972Z,101717.16
2023-02-11T04:20:42.571Z,101720.63
2023-02-11T04:23:10.145Z,101711.13
2023-02-11T04:25:36.648Z,101692.00
2023-02-11T04:28:03.197Z,101700.78
2023-02-11T04:30:29.675Z,101712.09
2023-02-11T04:32:56.167Z,101703.44
2023-02-11T04:35:22.706Z,101708.69
2023-02-11T04:37:49.156Z,101726.13
2023-02-11T04:40:15.692Z,101735.72
2023-02-11T04:42:42.113Z,101740.06
2023-02-11T04:45:08.889Z,101737.50
2023-02-11T04:47:36.127Z,101746.19
2023-02-11T04:50:02.608Z,101746.19
2023-02-11T04:52:29.055Z,101745.31
2023-02-11T04:54:55.467Z,101737.47
2023-02-11T04:57:21.867Z,101752.28
2023-02-11T04:59:48.797Z,101754.00
2023-02-11T05:02:15.260Z,101754.84
2023-02-11T05:04:41.706Z,101762.66
2023-02-11T05:07:08.198Z,101768.75
2023-02-11T05:09:34.593Z,101766.16
2023-02-11T05:12:01.128Z,101750.44
2023-02-11T05:14:27.593Z,101735.59
2023-02-11T05:16:54.137Z,101734.72
2023-02-11T05:19:20.664Z,101737.28
2023-02-11T05:22:01.353Z,101719.84
2023-02-11T05:24:28.925Z,101742.44
2023-02-11T05:26:55.425Z,101715.41
2023-02-11T05:29:22.529Z,101723.16
2023-02-11T05:31:48.934Z,101707.44
2023-02-11T05:34:15.344Z,101716.16
2023-02-11T05:36:41.797Z,101710.09
2023-02-11T05:39:08.294Z,101718.75
2023-02-11T05:41:34.741Z,101716.97
2023-02-11T05:44:01.422Z,101723.94
2023-02-11T05:46:27.930Z,101719.59
2023-02-11T05:48:56.488Z,101710.94
2023-02-11T05:51:25.199Z,101710.03
2023-02-11T05:53:51.649Z,101696.06
2023-02-11T05:56:18.114Z,101696.06
2023-02-11T05:58:44.566Z,101700.44
2023-02-11T06:01:10.953Z,101708.25
2023-02-11T06:03:37.460Z,101705.63
2023-02-11T06:06:04.158Z,101716.09
2023-02-11T06:08:30.562Z,101723.03
2023-02-11T06:10:56.954Z,101710.81
2023-02-11T06:13:23.422Z,101716.91
2023-02-11T06:15:56.619Z,101716.94
2023-02-11T06:18:23.233Z,101720.41
2023-02-11T06:20:49.813Z,101729.06
2023-02-11T06:23:16.440Z,101724.72
2023-02-11T06:25:42.978Z,101730.00
2023-02-11T06:28:10.576Z,101719.56
2023-02-11T06:30:37.852Z,101723.00
2023-02-11T06:33:04.389Z,101724.75
2023-02-11T06:35:30.953Z,101704.69
2023-02-11T06:37:57.422Z,101721.28
2023-02-11T06:40:24.323Z,101731.75
2023-02-11T06:42:50.715Z,101740.47
2023-02-11T06:45:17.237Z,101747.50
2023-02-11T06:47:43.718Z,101730.06
2023-02-11T06:50:12.935Z,101732.63
2023-02-11T06:52:39.392Z,101723.94
2023-02-11T06:55:06.173Z,101717.81
2023-02-11T06:57:32.730Z,101724.72
2023-02-11T06:59:59.207Z,101720.41
2023-02-11T07:02:25.680Z,101721.28
2023-02-11T07:04:52.122Z,101726.50
2023-02-11T07:07:18.588Z,101712.56
2023-02-11T07:09:45.020Z,101723.88
2023-02-11T07:12:11.481Z,101718.69
2023-02-11T07:14:38.166Z,101736.03
2023-02-11T07:17:05.102Z,101709.94
2023-02-11T07:19:31.787Z,101736.03
2023-02-11T07:21:58.223Z,101723.88
2023-02-11T07:24:25.042Z,101744.75
2023-02-11T07:26:51.477Z,101743.03
2023-02-11T07:29:18.587Z,101737.75
2023-02-11T07:31:45.151Z,101731.63
2023-02-11T07:34:11.723Z,101734.22
2023-02-11T07:36:43.597Z,101738.56
2023-02-11T07:39:10.087Z,101732.44
2023-02-11T07:41:38.046Z,101738.47
2023-02-11T07:44:04.769Z,101739.34
2023-02-11T07:46:32.030Z,101745.38
2023-02-11T07:48:58.519Z,101735.81
2023-02-11T07:51:27.565Z,101742.75
2023-02-11T07:53:55.357Z,101736.56
2023-02-11T07:56:22.097Z,101729.56
2023-02-11T07:58:49.060Z,101733.06
2023-02-11T08:01:19.353Z,101733.06
2023-02-11T08:03:45.887Z,101733.97
2023-02-11T08:06:14.576Z,101749.63
2023-02-11T08:08:41.244Z,101742.63
2023-02-11T08:11:21.386Z,101746.09
2023-02-11T08:13:47.968Z,101746.06
2023-02-11T08:16:23.208Z,101744.28
2023-02-11T08:18:50.076Z,101751.19
2023-02-11T08:21:16.799Z,101738.06
2023-02-11T08:23:44.065Z,101734.63
2023-02-11T08:26:15.416Z,101744.13
2023-02-11T08:28:43.914Z,101742.38
2023-02-11T08:31:17.087Z,101750.25
2023-02-11T08:33:44.130Z,101757.19
2023-02-11T08:36:14.812Z,101758.03
2023-02-11T08:38:41.474Z,101761.56
2023-02-11T08:41:08.437Z,101759.78
2023-02-11T08:43:35.673Z,101764.19
2023-02-11T08:46:03.026Z,101768.56
2023-02-11T08:48:29.962Z,101776.38
2023-02-11T08:50:57.215Z,101781.56
2023-02-11T08:53:24.406Z,101787.63
2023-02-11T08:55:52.629Z,101785.78
2023-02-11T08:58:19.838Z,101793.56
2023-02-11T09:00:47.223Z,101795.28
2023-02-11T09:03:14.462Z,101803.97
2023-02-11T09:05:42.889Z,101804.88
2023-02-11T09:08:09.590Z,101803.94
2023-02-11T09:10:36.233Z,101804.88
2023-02-11T09:13:02.896Z,101803.13
2023-02-11T09:15:29.857Z,101811.84
2023-02-11T09:17:56.587Z,101798.72
2023-02-11T09:20:23.508Z,101803.97
2023-02-11T09:22:50.316Z,101805.78
2023-02-11T09:25:16.861Z,101801.34
2023-02-11T09:27:43.323Z,101807.41
2023-02-11T09:30:10.332Z,101805.59
2023-02-11T09:32:36.819Z,101803.78
2023-02-11T09:35:03.398Z,101801.06
2023-02-11T09:37:29.894Z,101807.13
2023-02-11T09:39:56.343Z,101810.50
2023-02-11T09:42:42.812Z,101813.09
2023-02-11T09:45:19.773Z,101819.16
2023-02-11T09:47:56.202Z,101809.47
2023-02-11T09:50:31.819Z,101799.81
2023-02-11T09:53:28.578Z,101805.78
2023-02-11T09:55:58.808Z,101806.59
2023-02-11T09:58:28.120Z,101815.22
2023-02-11T10:00:57.402Z,101816.06
2023-02-11T10:03:33.579Z,101815.16
2023-02-11T10:06:20.634Z,101813.44
2023-02-11T10:09:06.832Z,101824.88
2023-02-11T10:11:51.921Z,101818.75
2023-02-11T10:14:32.642Z,101825.81
2023-02-11T10:17:29.164Z,101832.75
2023-02-11T10:20:19.520Z,101840.63
2023-02-11T10:22:52.903Z,101833.59
2023-02-11T10:25:50.654Z,101833.56
2023-02-11T10:28:19.672Z,101824.00
2023-02-11T10:30:55.367Z,101830.94
2023-02-11T10:33:32.576Z,101816.88
2023-02-11T10:35:59.341Z,101821.13
2023-02-11T10:38:26.575Z,101822.75
2023-02-11T10:40:53.578Z,101820.94
2023-02-11T10:43:24.572Z,101817.28
2023-02-11T10:45:52.969Z,101816.25
2023-02-11T10:48:39.720Z,101816.06
2023-02-11T10:51:17.122Z,101821.16
2023-02-11T10:53:47.686Z,101814.88
2023-02-11T10:56:27.406Z,101822.78
2023-02-11T10:59:21.612Z,101816.63
2023-02-11T11:01:54.421Z,101811.31
2023-02-11T11:04:27.194Z,101811.22
2023-02-11T11:07:29.844Z,101815.41
2023-02-11T11:10:11.328Z,101810.03
2023-02-11T11:12:47.852Z,101811.69
2023-02-11T11:15:18.636Z,101808.09
2023-02-11T11:17:45.933Z,101799.28
2023-02-11T11:20:18.325Z,101810.50
2023-02-11T11:22:45.379Z,101809.66
2023-02-11T11:25:26.395Z,101816.59
2023-02-11T11:27:55.465Z,101820.03
2023-02-11T11:30:23.531Z,101806.78
2023-02-11T11:32:50.107Z,101809.22
2023-02-11T11:35:26.165Z,101813.59
2023-02-11T11:37:55.512Z,101816.19
2023-02-11T11:40:25.831Z,101805.59
2023-02-11T11:43:03.881Z,101813.59
2023-02-11T11:45:30.388Z,101806.72
2023-02-11T11:48:01.791Z,101810.34
2023-02-11T11:50:30.942Z,101801.66
2023-02-11T11:53:36.172Z,101799.00
2023-02-11T11:56:16.349Z,101801.50
2023-02-11T11:58:42.902Z,101804.00
2023-02-11T12:01:34.539Z,101800.44
2023-02-11T12:04:38.573Z,101802.44
2023-02-11T12:07:25.875Z,101799.00
2023-02-11T12:10:11.512Z,101799.00
2023-02-11T12:12:47.072Z,101801.63
2023-02-11T12:15:57.950Z,101798.03
2023-02-11T12:18:38.529Z,101800.66
2023-02-11T12:21:34.306Z,101792.69
2023-02-11T12:24:48.913Z,101797.00
2023-02-11T12:27:45.074Z,101800.31
2023-02-11T12:30:20.057Z,101789.63
2023-02-11T12:32:55.574Z,101789.88
2023-02-11T12:35:31.344Z,101795.09
2023-02-11T12:38:18.547Z,101793.19
2023-02-11T12:41:10.263Z,101800.91
2023-02-11T12:43:38.659Z,101792.19
2023-02-11T12:46:23.022Z,101800.00
2023-02-11T12:49:03.543Z,101790.25
2023-02-11T12:52:01.966Z,101784.97
2023-02-11T12:54:41.784Z,101781.41
2023-02-11T12:57:11.287Z,101780.59
2023-02-11T12:59:59.814Z,101774.44
2023-02-11T13:02:36.357Z,101776.41
2023-02-11T13:05:26.213Z,101772.97
2023-02-11T13:07:58.386Z,101762.56
2023-02-11T13:10:33.101Z,101760.81
2023-02-11T13:13:18.840Z,101756.47
2023-02-11T13:16:04.903Z,101760.78
2023-02-11T13:18:49.213Z,101756.38
2023-02-11T13:21:19.159Z,101769.47
2023-02-11T13:23:59.875Z,101761.59
2023-02-11T13:26:31.049Z,101765.97
2023-02-11T13:29:09.469Z,101756.28
2023-02-11T13:31:36.059Z,101765.97
2023-02-11T13:34:03.765Z,101765.19
2023-02-11T13:36:32.886Z,101759.00
2023-02-11T13:39:05.218Z,101760.75
2023-02-11T13:41:37.570Z,101760.72
2023-02-11T13:44:09.670Z,101757.19
2023-02-11T13:46:53.728Z,101756.25
2023-02-11T13:49:31.292Z,101754.41
2023-02-11T13:51:59.008Z,101750.84
2023-02-11T13:54:32.098Z,101752.50
2023-02-11T13:57:20.453Z,101746.31
2023-02-11T13:59:50.650Z,101756.84
2023-02-11T14:02:35.492Z,101763.88
2023-02-11T14:05:28.082Z,101760.44
2023-02-11T14:08:48.470Z,101754.34
2023-02-11T14:11:23.857Z,101760.53
2023-02-11T14:13:50.211Z,101764.94
2023-02-11T14:16:31.869Z,101764.09
2023-02-11T14:19:03.853Z,101763.38
2023-02-11T14:21:36.775Z,101759.91
2023-02-11T14:24:04.751Z,101764.25
2023-02-11T14:26:31.133Z,101759.81
2023-02-11T14:29:09.592Z,101762.44
2023-02-11T14:31:40.318Z,101756.28
2023-02-11T14:34:32.062Z,101757.97
2023-02-11T14:37:06.001Z,101749.25
2023-02-11T14:39:45.127Z,101754.41
2023-02-11T14:42:18.839Z,101758.06
2023-02-11T14:44:47.475Z,101763.41
2023-02-11T14:47:19.933Z,101772.28
2023-02-11T14:49:47.742Z,101776.72
2023-02-11T14:52:26.617Z,101775.84
2023-02-11T14:55:07.386Z,101777.63
2023-02-11T14:57:33.857Z,101781.91
2023-02-11T15:00:05.942Z,101787.13
2023-02-11T15:02:35.759Z,101780.84
2023-02-11T15:05:20.141Z,101784.25
2023-02-11T15:07:49.692Z,101779.13
2023-02-11T15:10:23.155Z,101781.78
2023-02-11T15:12:49.946Z,101784.47
2023-02-11T15:15:16.672Z,101788.88
2023-02-11T15:17:43.787Z,101795.06
2023-02-11T15:20:22.852Z,101795.06
2023-02-11T15:22:52.145Z,101798.47
2023-02-11T15:25:19.954Z,101800.13
2023-02-11T15:27:48.767Z,101796.63
2023-02-11T15:30:21.022Z,101796.63
2023-02-11T15:32:48.500Z,101801.09
2023-02-11T15:35:14.968Z,101794.91
2023-02-11T15:37:41.402Z,101798.34
2023-02-11T15:40:11.266Z,101804.41
2023-02-11T15:42:51.822Z,101793.88
2023-02-11T15:45:28.903Z,101794.78
2023-02-11T15:48:10.597Z,101799.28
2023-02-11T15:50:38.043Z,101802.88
2023-02-11T15:53:29.535Z,101800.16
2023-02-11T15:56:26.048Z,101802.78
2023-02-11T15:58:55.721Z,101791.38
2023-02-11T16:01:33.997Z,101799.31
2023-02-11T16:04:01.287Z,101802.78
2023-02-11T16:06:42.193Z,101801.97
2023-02-11T16:09:08.489Z,101802.88
2023-02-11T16:11:57.945Z,101798.66
2023-02-11T16:14:27.239Z,101805.63
2023-02-11T16:16:54.828Z,101809.97
2023-02-11T16:19:25.340Z,101804.72
2023-02-11T16:21:53.041Z,101806.44
2023-02-11T16:24:22.427Z,101807.28
2023-02-11T16:26:51.809Z,101803.06
2023-02-11T16:29:21.915Z,101809.09
2023-02-11T16:31:50.212Z,101806.56
2023-02-11T16:34:22.212Z,101808.28
2023-02-11T16:36:49.689Z,101813.47
2023-02-11T16:39:16.849Z,101814.53
2023-02-11T16:41:43.916Z,101807.56
2023-02-11T16:44:10.349Z,101817.22
2023-02-11T16:46:37.453Z,101818.97
2023-02-11T16:49:11.147Z,101810.25
2023-02-11T16:51:39.471Z,101825.19
2023-02-11T16:54:05.892Z,101819.06
2023-02-11T16:56:32.533Z,101827.75
2023-02-11T16:58:59.010Z,101826.88
2023-02-11T17:01:25.553Z,101823.31
2023-02-11T17:03:53.931Z,101823.19
2023-02-11T17:06:20.411Z,101824.97
2023-02-11T17:08:46.910Z,101822.28
2023-02-11T17:11:16.685Z,101812.78
2023-02-11T17:13:43.727Z,101818.09
2023-02-11T17:16:17.358Z,101825.97
2023-02-11T17:18:43.919Z,101830.41
2023-02-11T17:21:10.384Z,101826.94
2023-02-11T17:23:37.381Z,101822.59
2023-02-11T17:26:04.099Z,101820.88
2023-02-11T17:28:32.261Z,101840.19
2023-02-11T17:30:59.630Z,101835.84
2023-02-11T17:33:26.121Z,101832.31
2023-02-11T17:35:52.944Z,101839.28
2023-02-11T17:38:19.580Z,101847.97
2023-02-11T17:40:46.003Z,101852.34
2023-02-11T17:43:12.465Z,101842.69
2023-02-11T17:45:42.461Z,101839.13
2023-02-11T17:48:08.892Z,101855.72
2023-02-11T17:50:36.880Z,101848.72
2023-02-11T17:53:03.355Z,101855.75
2023-02-11T17:55:33.016Z,101854.00
2023-02-11T17:57:59.851Z,101859.28
2023-02-11T18:00:28.142Z,101861.09
2023-02-11T18:02:57.515Z,101867.22
2023-02-11T18:05:26.619Z,101872.41
2023-02-11T18:07:54.475Z,101868.97
2023-02-11T18:10:21.174Z,101870.69
2023-02-11T18:12:47.577Z,101860.16
2023-02-11T18:15:14.127Z,101867.19
2023-02-11T18:17:40.592Z,101869.81
2023-02-11T18:20:09.038Z,101862.91
2023-02-11T18:22:39.255Z,101862.09
2023-02-11T18:25:07.661Z,101870.78
2023-02-11T18:27:35.025Z,101872.50
2023-02-11T18:30:01.465Z,101867.19
2023-02-11T18:32:27.950Z,101861.16
2023-02-11T18:34:54.408Z,101870.88
2023-02-11T18:37:20.892Z,101872.66
2023-02-11T18:39:47.364Z,101873.47
2023-02-11T18:42:13.848Z,101868.16
2023-02-11T18:44:40.344Z,101877.78
2023-02-11T18:47:06.798Z,101869.09
2023-02-11T18:49:35.565Z,101874.31
2023-02-11T18:52:02.527Z,101872.53
2023-02-11T18:54:28.973Z,101867.31
2023-02-11T18:56:55.345Z,101867.31
2023-02-11T18:59:21.788Z,101870.00
2023-02-11T19:01:48.300Z,101865.69
2023-02-11T19:04:19.656Z,101867.44
2023-02-11T19:06:48.301Z,101875.25
2023-02-11T19:09:16.703Z,101879.63
2023-02-11T19:11:46.876Z,101869.13
2023-02-11T19:14:19.412Z,101873.47
2023-02-11T19:16:46.552Z,101876.94
2023-02-11T19:19:13.873Z,101874.31
2023-02-11T19:21:43.217Z,101879.53
2023-02-11T19:24:10.233Z,101883.84
2023-02-11T19:26:37.184Z,101879.50
2023-02-11T19:29:05.215Z,101902.25
2023-02-11T19:31:32.246Z,101893.47
2023-02-11T19:33:59.722Z,101883.88
2023-02-11T19:36:26.478Z,101878.72
2023-02-11T19:38:52.919Z,101876.97
2023-02-11T19:41:22.162Z,101880.47
2023-02-11T19:43:52.679Z,101892.66
2023-02-11T19:46:21.100Z,101890.06
2023-02-11T19:48:48.157Z,101884.00
2023-02-11T19:51:14.713Z,101887.50
2023-02-11T19:53:41.492Z,101891.91
2023-02-11T19:56:08.401Z,101895.41
2023-02-11T19:58:35.575Z,101895.41
2023-02-11T20:01:06.659Z,101892.78
2023-02-11T20:03:33.493Z,101891.00
2023-02-11T20:06:00.085Z,101889.28
2023-02-11T20:08:26.592Z,101907.66
2023-02-11T20:10:53.119Z,101901.59
2023-02-11T20:13:19.583Z,101893.72
2023-02-11T20:15:46.222Z,101901.56
2023-02-11T20:18:12.637Z,101900.75
2023-02-11T20:20:39.148Z,101909.47
2023-02-11T20:23:05.642Z,101901.56
2023-02-11T20:25:32.051Z,101906.81
2023-02-11T20:27:58.510Z,101902.47
2023-02-11T20:30:24.955Z,101906.91
2023-02-11T20:32:51.357Z,101915.69
2023-02-11T20:35:17.786Z,101907.84
2023-02-11T20:37:45.280Z,101903.41
2023-02-11T20:40:12.165Z,101895.53
2023-02-11T20:42:38.574Z,101900.81
2023-02-11T20:45:05.323Z,101896.50
2023-02-11T20:47:32.292Z,101897.41
2023-02-11T20:49:58.925Z,101904.41
2023-02-11T20:52:25.407Z,101891.34
2023-02-11T20:54:52.022Z,101888.78
2023-02-11T20:57:18.464Z,101899.31
2023-02-11T20:59:44.905Z,101896.75
2023-02-11T21:02:13.105Z,101897.63
2023-02-11T21:04:39.557Z,101901.09
2023-02-11T21:07:06.267Z,101902.88
2023-02-11T21:09:33.181Z,101889.78
2023-02-11T21:12:00.389Z,101903.66
2023-02-11T21:14:28.855Z,101889.69
2023-02-11T21:16:55.405Z,101889.69
2023-02-11T21:19:21.802Z,101899.31
2023-02-11T21:21:48.863Z,101901.03
2023-02-11T21:24:15.470Z,101899.31
2023-02-11T21:26:42.005Z,101894.94
2023-02-11T21:29:08.501Z,101901.94
2023-02-11T21:31:36.277Z,101903.69
2023-02-11T21:34:03.415Z,101902.84
2023-02-11T21:36:30.482Z,101911.66
2023-02-11T21:38:57.094Z,101915.16
2023-02-11T21:41:24.642Z,101916.94
2023-02-11T21:43:51.485Z,101919.56
2023-02-11T21:46:18.678Z,101919.56
2023-02-11T21:48:45.520Z,101919.56
2023-02-11T21:51:15.558Z,101933.63
2023-02-11T21:53:42.031Z,101928.38
2023-02-11T21:56:10.770Z,101925.75
2023-02-11T21:58:37.910Z,101931.00
2023-02-11T22:01:15.964Z,101944.09
2023-02-11T22:03:43.744Z,101940.59
2023-02-11T22:06:12.897Z,101941.44
2023-02-11T22:08:39.722Z,101932.75
2023-02-11T22:11:08.521Z,101935.34
2023-02-11T22:13:35.248Z,101935.34
2023-02-11T22:16:05.182Z,101937.06
2023-02-11T22:18:32.262Z,101942.28
2023-02-11T22:21:04.346Z,101938.03
2023-02-11T22:23:30.852Z,101937.06
2023-02-11T22:25:57.836Z,101923.06
2023-02-11T22:28:25.811Z,101940.59
2023-02-11T22:30:54.187Z,101928.41
2023-02-11T22:33:21.111Z,101928.34
2023-02-11T22:35:47.652Z,101919.56
2023-02-11T22:38:14.083Z,101919.56
2023-02-11T22:40:44.129Z,101930.00
2023-02-11T22:43:10.767Z,101916.91
2023-02-11T22:45:37.240Z,101922.13
2023-02-11T22:48:03.862Z,101918.69
2023-02-11T22:50:30.476Z,101923.94
2023-02-11T22:52:57.160Z,101932.63
2023-02-11T22:55:23.532Z,101922.16
2023-02-11T22:57:50.001Z,101923.88
2023-02-11T23:00:17.463Z,101936.13
2023-02-11T23:02:44.059Z,101948.38
2023-02-11T23:05:10.604Z,101943.16
2023-02-11T23:07:37.077Z,101936.13
2023-02-11T23:10:04.250Z,101935.19
2023-02-11T23:12:30.714Z,101932.63
2023-02-11T23:14:57.163Z,101945.72
2023-02-11T23:17:24.436Z,101944.00
2023-02-11T23:19:50.952Z,101935.19
2023-02-11T23:22:17.362Z,101955.38
2023-02-11T23:24:43.908Z,101958.03
2023-02-11T23:27:10.320Z,101956.22
2023-02-11T23:29:37.079Z,101953.59
2023-02-11T23:32:03.542Z,101960.56
2023-02-11T23:34:30.001Z,101957.13
2023-02-11T23:36:57.644Z,101945.72
2023-02-11T23:39:24.121Z,101959.75
2023-02-11T23:41:52.060Z,101957.16
2023-02-11T23:44:18.581Z,101944.00
2023-02-11T23:46:45.034Z,101950.16
2023-02-11T23:49:11.441Z,101958.84
2023-02-11T23:51:37.949Z,101951.00
2023-02-11T23:54:04.536Z,101954.50
2023-02-11T23:56:31.101Z,101949.25
2023-02-11T23:58:58.737Z,101954.47
